Robinson, Kansas
Current Conditions -  °F | °C
As of 10:53 PM on Saturday 22 Nov 2014 (Local Time) from KFNB Reporting Station
Overcast Overcast  
Wind Chill: 55°   Ceiling: 800
Heat Index: 55°   Visibility: 10mi
Dew Point: 52°   Wind: 9mph
Humidity: 89%   Direction: 180°S
Pressure: 29.64"   Gusts: NA
Location:  39.82°N, 95.41°W
Report Text: KFNB 230453Z AUTO 18008KT 10SM OVC008 13/11 A2964 RMK AO2 SLP036 T01280111
Loading
Personal Weather Stations






























Interactive Weather Map New forecast layout! Learn more

10-Day Weather Forecast

Advertisements
Track Severe Weather on mobile